Time;durP1;ratioP1;P1;durP2;ratioP2;P2;SDS_P1;SDS_P2;PMS_P1;PMS_P2;Temp;Humidity;BMP_temperature;BMP_pressure;BME280_temperature;BME280_humidity;BME280_pressure;Samples;Min_cycle;Max_cycle;Signal;HPM_P1;HPM_P2
2023/03/08 00:01:36;;;;;;;3.63;2.55;;;;;;;-4.05;100.00;100171.75;5073689;28;20380;-70
2023/03/08 00:04:01;;;;;;;7.88;2.97;;;;;;;-4.13;100.00;100169.47;5073967;28;20028;-71
2023/03/08 00:06:27;;;;;;;4.10;2.90;;;;;;;-4.18;100.00;100174.00;5073594;28;20029;-70
2023/03/08 00:08:57;;;;;;;5.85;2.60;;;;;;;-4.21;100.00;100173.28;5073563;28;20048;-69
2023/03/08 00:11:23;;;;;;;4.20;2.70;;;;;;;-4.28;100.00;100160.53;5073565;28;20036;-70
2023/03/08 00:13:49;;;;;;;5.00;3.10;;;;;;;-4.27;100.00;100167.44;5073610;28;20028;-69
2023/03/08 00:16:15;;;;;;;9.88;2.90;;;;;;;-4.25;100.00;100154.38;5073604;28;20476;-70
2023/03/08 00:18:41;;;;;;;5.32;2.63;;;;;;;-4.26;100.00;100163.06;5074251;28;20467;-71
2023/03/08 00:21:09;;;;;;;7.68;2.72;;;;;;;-4.28;100.00;100160.53;5073651;28;20039;-70
2023/03/08 00:23:34;;;;;;;4.20;3.42;;;;;;;-4.30;100.00;100166.69;5073334;28;20039;-70
2023/03/08 00:26:00;;;;;;;5.85;2.75;;;;;;;-4.34;100.00;100165.97;5073049;28;20036;-70
2023/03/08 00:28:26;;;;;;;4.60;2.80;;;;;;;-4.37;100.00;100165.25;5073488;28;20040;-70
2023/03/08 00:30:59;;;;;;;6.78;2.90;;;;;;;-4.42;100.00;100160.22;5073591;28;20049;-70
2023/03/08 00:33:25;;;;;;;4.97;2.90;;;;;;;-4.44;100.00;100159.44;5074083;28;20032;-70
2023/03/08 00:36:07;;;;;;;9.50;3.10;;;;;;;-4.46;100.00;100159.50;5073259;28;20024;-70
2023/03/08 00:38:34;;;;;;;7.10;2.78;;;;;;;-4.45;100.00;100150.81;5073200;28;20025;-70
2023/03/08 00:41:00;;;;;;;4.90;3.00;;;;;;;-4.42;100.00;100142.03;5073087;28;20178;-69
2023/03/08 00:43:26;;;;;;;5.57;3.38;;;;;;;-4.36;100.00;100141.81;5073053;28;20024;-70
2023/03/08 00:45:52;;;;;;;5.28;3.30;;;;;;;-4.30;100.00;100133.78;5073071;28;20032;-71
2023/03/08 00:48:17;;;;;;;6.53;3.17;;;;;;;-4.19;100.00;100132.50;5072933;28;20081;-70
2023/03/08 00:50:42;;;;;;;6.05;2.72;;;;;;;-4.08;100.00;100130.31;5073082;28;20040;-69
2023/03/08 00:53:08;;;;;;;6.40;3.67;;;;;;;-3.97;100.00;100130.72;5073000;28;20111;-69
2023/03/08 00:55:34;;;;;;;5.63;3.50;;;;;;;-3.80;100.00;100131.75;5054894;28;20127;-69
2023/03/08 00:57:59;;;;;;;6.40;3.35;;;;;;;-3.64;100.00;100135.41;5072906;28;20025;-69
2023/03/08 01:00:25;;;;;;;5.85;3.40;;;;;;;-3.49;100.00;100135.63;5073111;28;20020;-70
2023/03/08 01:02:50;;;;;;;3.88;3.17;;;;;;;-3.37;100.00;100127.31;5073152;28;20045;-69
2023/03/08 01:05:16;;;;;;;8.48;3.88;;;;;;;-3.28;100.00;100129.50;5055157;28;20138;-69
2023/03/08 01:07:41;;;;;;;6.82;3.83;;;;;;;-3.18;100.00;100127.31;5054969;28;20029;-71
2023/03/08 01:10:07;;;;;;;6.03;3.72;;;;;;;-3.06;100.00;100120.69;5073909;28;20384;-71
2023/03/08 01:12:34;;;;;;;4.55;3.00;;;;;;;-2.96;100.00;100127.19;5055213;28;20033;-70
2023/03/08 01:14:59;;;;;;;8.57;3.22;;;;;;;-2.83;100.00;100124.88;5072816;28;20056;-71
2023/03/08 01:17:25;;;;;;;13.07;3.70;;;;;;;-2.72;100.00;100113.94;5072760;28;20610;-70
2023/03/08 01:19:50;;;;;;;7.15;2.38;;;;;;;-2.60;100.00;100113.34;5073116;28;20033;-70
2023/03/08 01:22:15;;;;;;;5.38;2.10;;;;;;;-2.50;100.00;100126.81;5072432;28;20029;-72
2023/03/08 01:24:48;;;;;;;3.15;1.48;;;;;;;-2.44;100.00;100107.44;5054694;28;20078;-71
2023/03/08 01:27:14;;;;;;;6.32;1.92;;;;;;;-2.38;100.00;100115.78;5072788;28;20039;-71
2023/03/08 01:29:40;;;;;;;4.70;1.48;;;;;;;-2.33;100.00;100111.22;5072653;28;20071;-70
2023/03/08 01:32:06;;;;;;;8.68;1.77;;;;;;;-2.30;100.00;100115.41;5072618;28;20064;-71
2023/03/08 01:34:31;;;;;;;4.05;1.98;;;;;;;-2.27;100.00;100094.41;5072676;28;20033;-70
2023/03/08 01:36:57;;;;;;;8.68;2.17;;;;;;;-2.27;100.00;100085.75;5076073;28;20036;-71
2023/03/08 01:39:22;;;;;;;8.70;1.70;;;;;;;-2.23;100.00;100088.13;5076724;28;20033;-70
2023/03/08 01:41:47;;;;;;;3.58;1.52;;;;;;;-2.21;100.00;100094.13;5076744;28;20120;-69
2023/03/08 01:44:18;;;;;;;7.32;2.40;;;;;;;-2.18;100.00;100087.91;5076946;28;20115;-69
2023/03/08 01:46:43;;;;;;;8.32;1.52;;;;;;;-2.18;100.00;100093.97;5076005;28;20063;-68
2023/03/08 01:49:09;;;;;;;6.18;1.33;;;;;;;-2.21;100.00;100083.72;5076247;28;20032;-69
2023/03/08 01:51:34;;;;;;;3.63;1.17;;;;;;;-2.27;100.00;100075.34;5076379;28;20043;-69
2023/03/08 01:54:03;;;;;;;6.65;1.90;;;;;;;-2.33;100.00;100079.94;5076360;28;20114;-69
2023/03/08 01:56:29;;;;;;;4.38;1.50;;;;;;;-2.41;100.00;100071.63;5075869;28;20481;-68
2023/03/08 01:58:56;;;;;;;2.55;1.63;;;;;;;-2.52;100.00;100069.56;5075916;28;20044;-69
2023/03/08 02:01:21;;;;;;;6.60;1.70;;;;;;;-2.64;100.00;100064.09;5075664;28;20029;-69
2023/03/08 02:03:47;;;;;;;2.40;1.40;;;;;;;-2.75;100.00;100062.00;5076039;28;20031;-68
2023/03/08 02:06:14;;;;;;;4.70;1.50;;;;;;;-2.87;100.00;100051.25;5076029;28;20033;-69
2023/03/08 02:08:41;;;;;;;2.85;1.40;;;;;;;-2.94;100.00;100049.00;5057674;28;20056;-68
2023/03/08 02:11:07;;;;;;;3.40;1.45;;;;;;;-3.01;100.00;100051.06;5075994;28;20039;-68
2023/03/08 02:13:32;;;;;;;3.97;1.25;;;;;;;-3.10;100.00;100034.13;5075571;28;20028;-68
2023/03/08 02:15:59;;;;;;;2.17;1.38;;;;;;;-3.14;100.00;100029.13;5075891;28;20035;-69
2023/03/08 02:18:25;;;;;;;3.45;1.50;;;;;;;-3.19;100.00;100040.59;5075640;28;20033;-69
2023/03/08 02:20:50;;;;;;;4.55;1.80;;;;;;;-3.21;100.00;100026.81;5075773;28;20418;-69
2023/03/08 02:23:20;;;;;;;6.40;1.70;;;;;;;-3.23;100.00;100022.59;5075823;28;20145;-69
2023/03/08 02:26:04;;;;;;;3.30;1.33;;;;;;;-3.30;100.00;100021.19;5075395;28;20529;-71
2023/03/08 02:28:31;;;;;;;2.53;1.67;;;;;;;-3.37;100.00;100012.84;5075987;28;20043;-69
2023/03/08 02:30:56;;;;;;;2.75;1.35;;;;;;;-3.44;100.00;100008.81;5057600;28;20117;-69
2023/03/08 02:33:22;;;;;;;1.55;1.30;;;;;;;-3.51;100.00;100004.81;5075609;28;20457;-70
2023/03/08 02:35:48;;;;;;;5.45;1.30;;;;;;;-3.56;100.00;100008.44;5057473;28;20119;-69
2023/03/08 02:38:16;;;;;;;1.88;1.45;;;;;;;-3.60;100.00;100016.47;5076064;28;20028;-70
2023/03/08 02:40:42;;;;;;;2.45;1.25;;;;;;;-3.66;100.00;100009.78;5075295;28;20063;-69
2023/03/08 02:43:07;;;;;;;3.60;1.50;;;;;;;-3.73;100.00;100011.81;5075662;28;20056;-71
2023/03/08 02:45:34;;;;;;;4.35;1.00;;;;;;;-3.79;100.00;100009.50;5074969;28;20029;-68
2023/03/08 02:48:01;;;;;;;3.45;1.38;;;;;;;-3.85;100.00;100014.97;5074922;28;20063;-70
2023/03/08 02:50:26;;;;;;;1.80;1.30;;;;;;;-3.91;100.00;100010.88;5075279;28;20033;-70
2023/03/08 02:52:52;;;;;;;4.82;1.80;;;;;;;-3.94;100.00;100011.03;5057993;28;20036;-71
2023/03/08 02:55:17;;;;;;;4.15;1.90;;;;;;;-3.92;100.00;100016.97;5075111;28;20070;-70
2023/03/08 02:57:42;;;;;;;4.55;1.48;;;;;;;-3.93;100.00;100010.09;5075441;28;20068;-71
2023/03/08 03:00:09;;;;;;;1.65;1.42;;;;;;;-3.94;100.00;100007.56;5075217;28;20025;-71
2023/03/08 03:02:34;;;;;;;5.13;1.50;;;;;;;-3.95;100.00;100005.88;5074715;28;20472;-70
2023/03/08 03:05:03;;;;;;;5.35;1.38;;;;;;;-3.92;100.00;99992.75;5075051;28;20051;-70
2023/03/08 03:07:28;;;;;;;4.50;1.70;;;;;;;-3.84;100.00;99993.25;5075460;28;20025;-71
2023/03/08 03:09:54;;;;;;;3.85;1.60;;;;;;;-3.81;100.00;99985.31;5074849;28;20055;-70
2023/03/08 03:12:19;;;;;;;6.38;1.60;;;;;;;-3.79;100.00;99980.91;5075091;28;20048;-71
2023/03/08 03:14:44;;;;;;;3.13;1.50;;;;;;;-3.81;100.00;99971.47;5074851;28;20089;-71
2023/03/08 03:17:10;;;;;;;1.90;1.25;;;;;;;-3.81;100.00;99972.31;5074474;28;20434;-70
2023/03/08 03:19:36;;;;;;;2.38;1.42;;;;;;;-3.85;100.00;99968.19;5074719;28;20033;-71
2023/03/08 03:22:02;;;;;;;9.57;1.98;;;;;;;-3.85;100.00;99959.53;5074302;28;20392;-69
2023/03/08 03:24:27;;;;;;;2.00;1.40;;;;;;;-3.87;100.00;99957.00;5074597;28;20030;-69
2023/03/08 03:26:52;;;;;;;3.90;1.35;;;;;;;-3.87;100.00;99953.56;5074456;28;20101;-71
2023/03/08 03:29:18;;;;;;;1.45;1.35;;;;;;;-3.89;100.00;99945.84;5074523;28;20033;-69
2023/03/08 03:31:43;;;;;;;1.88;1.40;;;;;;;-3.89;100.00;99938.03;5074481;28;20064;-71
2023/03/08 03:34:09;;;;;;;1.63;1.50;;;;;;;-3.88;100.00;99931.06;5074552;28;20543;-72
2023/03/08 03:36:34;;;;;;;3.50;1.20;;;;;;;-3.87;100.00;99927.56;5074034;28;20033;-71
2023/03/08 03:38:59;;;;;;;2.20;1.63;;;;;;;-3.84;100.00;99937.81;5074304;28;20036;-68
2023/03/08 03:41:25;;;;;;;1.52;1.30;;;;;;;-3.83;100.00;99934.31;5056383;28;20090;-70
2023/03/08 03:43:51;;;;;;;3.70;1.80;;;;;;;-3.82;100.00;99926.44;5056783;28;20437;-70
2023/03/08 03:46:18;;;;;;;3.00;1.77;;;;;;;-3.83;100.00;99921.31;5074174;28;20046;-70
2023/03/08 03:48:44;;;;;;;4.18;2.03;;;;;;;-3.82;100.00;99928.19;5056159;28;20093;-69
2023/03/08 03:51:12;;;;;;;2.95;2.08;;;;;;;-3.85;100.00;99937.00;5074106;28;20505;-70
2023/03/08 03:53:38;;;;;;;1.77;1.63;;;;;;;-3.88;100.00;99937.13;5074049;28;20028;-69
2023/03/08 03:56:06;;;;;;;2.83;2.00;;;;;;;-3.90;100.00;99934.59;5074222;28;20036;-69
2023/03/08 03:58:31;;;;;;;2.97;2.50;;;;;;;-3.90;100.00;99918.16;5073166;28;20060;-70
2023/03/08 04:00:57;;;;;;;4.00;2.42;;;;;;;-3.90;100.00;99915.53;5074275;28;20122;-70
2023/03/08 04:03:23;;;;;;;3.92;2.40;;;;;;;-3.91;100.00;99911.28;5055840;28;20021;-70
2023/03/08 04:05:49;;;;;;;6.05;3.63;;;;;;;-3.93;100.00;99918.28;5055914;28;20028;-69
2023/03/08 04:08:14;;;;;;;3.97;2.83;;;;;;;-3.93;100.00;99913.09;5055856;28;20071;-69
2023/03/08 04:10:39;;;;;;;3.33;2.90;;;;;;;-3.94;100.00;99909.66;5073979;28;20056;-69
2023/03/08 04:13:05;;;;;;;3.45;3.15;;;;;;;-3.95;100.00;99909.72;5073899;28;20044;-70
2023/03/08 04:15:31;;;;;;;4.57;3.10;;;;;;;-3.96;100.00;99906.25;5073665;28;20477;-69
2023/03/08 04:17:56;;;;;;;10.65;4.60;;;;;;;-3.95;100.00;99901.94;5055535;28;20594;-69
2023/03/08 04:20:22;;;;;;;6.57;4.72;;;;;;;-3.95;100.00;99899.31;5073629;28;20032;-69
2023/03/08 04:22:48;;;;;;;8.50;5.38;;;;;;;-3.95;100.00;99892.38;5073351;28;20029;-69
2023/03/08 04:25:13;;;;;;;14.68;7.00;;;;;;;-3.92;100.00;99892.22;5073435;28;20070;-69
2023/03/08 04:27:39;;;;;;;16.35;8.48;;;;;;;-3.91;100.00;99886.13;5073066;28;20066;-69
2023/03/08 04:30:05;;;;;;;15.50;9.75;;;;;;;-3.90;100.00;99882.63;5073342;28;20037;-70
2023/03/08 04:32:31;;;;;;;19.05;10.45;;;;;;;-3.88;100.00;99879.94;5073460;28;20032;-69
2023/03/08 04:34:56;;;;;;;17.73;11.23;;;;;;;-3.87;100.00;99873.81;5055220;28;20150;-70
2023/03/08 04:37:23;;;;;;;16.10;10.18;;;;;;;-3.83;100.00;99877.13;5073249;28;20033;-69
2023/03/08 04:39:49;;;;;;;17.95;11.18;;;;;;;-3.82;100.00;99877.06;5073075;28;20082;-69
2023/03/08 04:42:14;;;;;;;17.98;10.90;;;;;;;-3.79;100.00;99865.66;5073173;28;20040;-70
2023/03/08 04:44:39;;;;;;;21.80;11.63;;;;;;;-3.77;100.00;99874.25;5073023;28;20033;-69
2023/03/08 04:47:05;;;;;;;16.20;11.00;;;;;;;-3.75;100.00;99869.81;5055665;28;20116;-70
2023/03/08 04:49:30;;;;;;;15.93;11.18;;;;;;;-3.71;100.00;99879.16;5073489;28;20043;-69
2023/03/08 04:51:56;;;;;;;15.05;10.77;;;;;;;-3.68;100.00;99876.41;5073438;28;20174;-69
2023/03/08 04:54:21;;;;;;;18.00;10.68;;;;;;;-3.64;100.00;99866.69;5073181;28;20028;-68
2023/03/08 04:56:46;;;;;;;20.65;11.00;;;;;;;-3.59;100.00;99854.34;5073043;28;20033;-68
2023/03/08 04:59:12;;;;;;;16.42;10.60;;;;;;;-3.55;100.00;99837.66;5073209;28;20587;-69
2023/03/08 05:01:37;;;;;;;20.15;10.45;;;;;;;-3.51;100.00;99839.19;5072698;28;20393;-69
2023/03/08 05:04:03;;;;;;;18.45;11.23;;;;;;;-3.50;100.00;99832.25;5072965;28;20033;-69
2023/03/08 05:06:28;;;;;;;21.77;12.15;;;;;;;-3.45;100.00;99830.25;5073035;28;20111;-69
2023/03/08 05:08:54;;;;;;;18.95;12.70;;;;;;;-3.43;100.00;99831.03;5073014;28;20063;-69
2023/03/08 05:11:23;;;;;;;17.00;12.45;;;;;;;-3.40;100.00;99826.50;5071720;28;20341;-69
2023/03/08 05:13:49;;;;;;;23.40;13.60;;;;;;;-3.39;100.00;99817.81;5073075;28;20024;-68
2023/03/08 05:16:14;;;;;;;18.58;13.57;;;;;;;-3.37;100.00;99807.31;5072909;28;20499;-69
2023/03/08 05:18:40;;;;;;;22.65;13.85;;;;;;;-3.33;100.00;99805.41;5072630;28;20155;-71
2023/03/08 05:21:10;;;;;;;21.52;14.57;;;;;;;-3.31;100.00;99786.19;5072989;28;20595;-69
2023/03/08 05:23:36;;;;;;;20.20;13.57;;;;;;;-3.27;100.00;99774.72;5073142;28;20031;-70
2023/03/08 05:26:03;;;;;;;28.65;15.35;;;;;;;-3.26;100.00;99765.16;5072730;28;20076;-68
2023/03/08 05:28:31;;;;;;;27.90;16.08;;;;;;;-3.26;100.00;99763.38;5072899;28;20039;-69
2023/03/08 05:31:10;;;;;;;32.08;17.60;;;;;;;-3.22;100.00;99762.31;5072719;28;20051;-68
2023/03/08 05:33:37;;;;;;;30.20;15.40;;;;;;;-3.17;100.00;99758.66;5072889;28;20033;-69
2023/03/08 05:36:04;;;;;;;35.40;17.85;;;;;;;-3.13;100.00;99755.81;5073430;28;20385;-69
2023/03/08 05:38:29;;;;;;;30.60;17.70;;;;;;;-3.08;100.00;99748.59;5073025;28;20061;-69
2023/03/08 05:41:02;;;;;;;39.00;18.77;;;;;;;-3.06;100.00;99744.16;5072565;28;20380;-69
2023/03/08 05:43:27;;;;;;;44.67;21.25;;;;;;;-3.04;100.00;99744.91;5073427;28;20040;-69
2023/03/08 05:45:55;;;;;;;33.63;20.58;;;;;;;-3.02;100.00;99737.03;5072707;28;20028;-69
2023/03/08 05:48:20;;;;;;;36.85;21.02;;;;;;;-2.98;100.00;99742.94;5072298;28;20370;-69
2023/03/08 05:50:46;;;;;;;42.33;20.92;;;;;;;-2.98;100.00;99733.34;5072633;28;20040;-70
2023/03/08 05:53:11;;;;;;;44.75;22.00;;;;;;;-2.97;100.00;99735.03;5072803;28;20089;-69
2023/03/08 05:55:36;;;;;;;39.40;21.67;;;;;;;-2.94;100.00;99729.69;5072678;28;20056;-69
2023/03/08 05:58:02;;;;;;;43.17;22.00;;;;;;;-2.90;100.00;99727.75;5053862;28;20444;-69
2023/03/08 06:00:27;;;;;;;43.05;22.80;;;;;;;-2.87;100.00;99712.78;5054452;28;20036;-70
2023/03/08 06:02:52;;;;;;;46.72;23.05;;;;;;;-2.83;100.00;99716.91;5072699;28;20029;-69
2023/03/08 06:05:18;;;;;;;46.90;23.52;;;;;;;-2.82;100.00;99720.38;5072713;28;20060;-69
2023/03/08 06:07:43;;;;;;;56.95;24.88;;;;;;;-2.79;100.00;99717.63;5072453;28;20024;-70
2023/03/08 06:10:09;;;;;;;49.75;24.98;;;;;;;-2.76;100.00;99716.59;5050571;28;20559;-70
2023/03/08 06:12:34;;;;;;;49.65;24.17;;;;;;;-2.74;100.00;99725.19;5052367;28;20044;-70
2023/03/08 06:15:00;;;;;;;54.45;25.65;;;;;;;-2.73;100.00;99716.41;5052307;28;20037;-69
2023/03/08 06:17:25;;;;;;;48.40;25.13;;;;;;;-2.70;100.00;99724.09;5052872;28;20414;-70
2023/03/08 06:19:50;;;;;;;51.03;23.85;;;;;;;-2.69;100.00;99723.16;5052082;28;20078;-70
2023/03/08 06:22:16;;;;;;;56.38;25.73;;;;;;;-2.69;100.00;99723.16;5054356;28;20120;-70
2023/03/08 06:24:41;;;;;;;52.47;24.30;;;;;;;-2.67;100.00;99723.94;5054469;28;20466;-70
2023/03/08 06:27:07;;;;;;;55.53;24.85;;;;;;;-2.67;100.00;99719.56;5055738;28;20033;-69
2023/03/08 06:29:32;;;;;;;52.45;25.15;;;;;;;-2.63;100.00;99724.59;5054503;28;20041;-69
2023/03/08 06:31:57;;;;;;;50.90;25.13;;;;;;;-2.61;100.00;99721.00;5056004;28;20473;-69
2023/03/08 06:34:23;;;;;;;55.15;25.45;;;;;;;-2.62;100.00;99718.47;5056337;28;20129;-69
2023/03/08 06:36:48;;;;;;;54.60;24.98;;;;;;;-2.58;100.00;99715.63;5055891;28;20032;-70
2023/03/08 06:39:14;;;;;;;52.35;25.58;;;;;;;-2.57;100.00;99717.28;5054401;28;20029;-69
2023/03/08 06:41:39;;;;;;;57.97;26.30;;;;;;;-2.55;100.00;99717.22;5055713;28;20468;-69
2023/03/08 06:44:05;;;;;;;64.25;26.92;;;;;;;-2.53;100.00;99717.97;5054007;28;20105;-70
2023/03/08 06:46:30;;;;;;;56.13;26.52;;;;;;;-2.52;100.00;99715.28;5054950;28;20182;-70
2023/03/08 06:48:55;;;;;;;72.45;29.38;;;;;;;-2.47;100.00;99711.59;5055703;28;20351;-71
2023/03/08 06:51:21;;;;;;;71.35;28.88;;;;;;;-2.46;100.00;99718.47;5055058;28;20120;-70
2023/03/08 06:53:47;;;;;;;73.88;30.23;;;;;;;-2.44;100.00;99714.88;5055046;28;20029;-71
2023/03/08 06:56:15;;;;;;;73.00;30.10;;;;;;;-2.41;100.00;99708.66;5054979;28;20409;-70
2023/03/08 06:58:41;;;;;;;70.57;30.27;;;;;;;-2.36;100.00;99714.44;5055195;28;20124;-71
2023/03/08 07:01:08;;;;;;;75.00;30.45;;;;;;;-2.34;100.00;99705.63;5055001;28;20385;-69
2023/03/08 07:03:34;;;;;;;85.28;32.13;;;;;;;-2.29;100.00;99707.13;5055042;28;20033;-69
2023/03/08 07:06:06;;;;;;;86.15;32.97;;;;;;;-2.24;100.00;99707.72;5054848;28;20037;-68
2023/03/08 07:08:31;;;;;;;79.57;32.20;;;;;;;-2.21;100.00;99704.94;5054862;28;20025;-71
2023/03/08 07:10:58;;;;;;;88.20;33.80;;;;;;;-2.17;100.00;99704.66;5053485;28;20136;-71
2023/03/08 07:13:23;;;;;;;93.03;35.22;;;;;;;-2.14;100.00;99701.06;5053524;28;20385;-69
2023/03/08 07:15:50;;;;;;;98.93;36.17;;;;;;;-2.11;100.00;99694.84;5053324;28;20033;-70
2023/03/08 07:18:15;;;;;;;94.38;35.83;;;;;;;-2.10;100.00;99697.38;5054162;28;20116;-69
2023/03/08 07:20:41;;;;;;;93.50;36.22;;;;;;;-2.07;100.00;99686.75;5054262;28;20068;-70
2023/03/08 07:23:06;;;;;;;105.68;37.63;;;;;;;-2.04;100.00;99689.19;5052821;28;20478;-69
2023/03/08 07:25:32;;;;;;;106.63;37.78;;;;;;;-1.99;100.00;99689.75;5054688;28;20025;-70
2023/03/08 07:27:59;;;;;;;104.10;37.83;;;;;;;-1.93;100.00;99679.94;5054384;28;20037;-72
2023/03/08 07:30:24;;;;;;;109.45;37.63;;;;;;;-1.87;100.00;99675.19;5053912;28;20112;-69
2023/03/08 07:32:52;;;;;;;105.60;37.47;;;;;;;-1.80;100.00;99683.50;5053348;28;20064;-69
2023/03/08 07:35:17;;;;;;;106.68;38.45;;;;;;;-1.72;100.00;99683.06;5054138;28;20525;-68
2023/03/08 07:37:44;;;;;;;106.40;37.50;;;;;;;-1.65;100.00;99682.59;5053891;28;20135;-69
2023/03/08 07:40:11;;;;;;;103.32;37.78;;;;;;;-1.57;100.00;99674.34;5054627;28;20119;-68
2023/03/08 07:42:37;;;;;;;89.57;36.60;;;;;;;-1.50;100.00;99670.44;5054010;28;20033;-68
2023/03/08 07:45:02;;;;;;;101.82;36.83;;;;;;;-1.44;100.00;99669.25;5054072;28;20029;-69
2023/03/08 07:47:28;;;;;;;90.57;36.28;;;;;;;-1.40;100.00;99672.50;5052851;28;20075;-68
2023/03/08 07:49:53;;;;;;;87.47;35.53;;;;;;;-1.39;100.00;99671.56;5054004;28;20354;-71
2023/03/08 07:52:18;;;;;;;78.22;33.10;;;;;;;-1.40;100.00;99668.13;5054381;28;20047;-70
2023/03/08 07:54:44;;;;;;;91.45;35.72;;;;;;;-1.39;100.00;99666.34;5053885;28;20150;-70
2023/03/08 07:57:13;;;;;;;88.63;36.33;;;;;;;-1.38;100.00;99666.25;5058052;28;20032;-74
2023/03/08 07:59:38;;;;;;;78.95;33.75;;;;;;;-1.37;100.00;99661.88;5053678;28;20040;-71
2023/03/08 08:02:03;;;;;;;83.00;35.40;;;;;;;-1.32;100.00;99655.44;5054298;28;20492;-70
2023/03/08 08:04:29;;;;;;;86.45;35.10;;;;;;;-1.26;100.00;99662.91;5053820;28;20373;-70
2023/03/08 08:06:54;;;;;;;78.05;34.53;;;;;;;-1.21;100.00;99665.25;5053804;28;20037;-71
2023/03/08 08:09:19;;;;;;;87.95;36.58;;;;;;;-1.17;100.00;99663.31;5057019;28;20052;-70
2023/03/08 08:11:45;;;;;;;86.32;34.67;;;;;;;-1.17;100.00;99658.06;5073219;28;20461;-70
2023/03/08 08:14:10;;;;;;;83.30;34.97;;;;;;;-1.14;100.00;99663.09;5073259;28;20410;-72
2023/03/08 08:16:35;;;;;;;95.85;36.50;;;;;;;-1.11;100.00;99668.16;5073772;28;20024;-69
2023/03/08 08:19:01;;;;;;;108.30;40.20;;;;;;;-1.16;100.00;99665.00;5073329;28;20033;-70
2023/03/08 08:21:26;;;;;;;118.45;39.25;;;;;;;-1.13;100.00;99660.41;5073042;28;20028;-70
2023/03/08 08:23:56;;;;;;;105.32;37.72;;;;;;;-1.11;100.00;99650.69;5055064;28;20040;-69
2023/03/08 08:26:22;;;;;;;93.53;35.92;;;;;;;-1.02;100.00;99653.69;5073117;28;20042;-69
2023/03/08 08:28:51;;;;;;;95.18;34.75;;;;;;;-0.96;100.00;99659.38;5072667;28;20337;-69
2023/03/08 08:31:20;;;;;;;84.10;33.40;;;;;;;-0.87;100.00;99651.91;5055153;28;20149;-70
2023/03/08 08:33:46;;;;;;;76.85;31.33;;;;;;;-0.84;100.00;99652.53;5072996;28;20119;-75
2023/03/08 08:36:15;;;;;;;68.07;29.58;;;;;;;-0.81;100.00;99649.75;5072590;28;20066;-71
2023/03/08 08:38:42;;;;;;;73.13;29.10;;;;;;;-0.78;100.00;99640.88;5072879;28;20032;-71
2023/03/08 08:41:07;;;;;;;70.72;30.10;;;;;;;-0.79;100.00;99641.81;5072713;28;20039;-71
2023/03/08 08:43:35;;;;;;;68.63;28.05;;;;;;;-0.83;100.00;99641.19;5072895;28;20458;-71
2023/03/08 08:46:01;;;;;;;68.32;28.70;;;;;;;-0.72;100.00;99643.97;5072613;28;20040;-71
2023/03/08 08:48:27;;;;;;;58.03;25.92;;;;;;;-0.59;100.00;99653.63;5072496;28;20039;-71
2023/03/08 08:50:53;;;;;;;56.78;24.38;;;;;;;-0.44;100.00;99647.44;5072806;28;20028;-71
2023/03/08 08:53:19;;;;;;;51.63;24.73;;;;;;;-0.37;100.00;99643.50;5072816;28;20029;-72
2023/03/08 08:55:45;;;;;;;52.38;24.65;;;;;;;-0.31;100.00;99644.03;5073039;28;20032;-69
2023/03/08 08:58:11;;;;;;;48.92;22.23;;;;;;;-0.29;100.00;99637.75;5073109;28;20032;-70
2023/03/08 09:00:36;;;;;;;47.67;23.05;;;;;;;-0.24;100.00;99640.06;5054682;28;20538;-71
2023/03/08 09:03:03;;;;;;;48.22;21.90;;;;;;;-0.20;100.00;99639.78;5072969;28;20033;-72
2023/03/08 09:05:29;;;;;;;44.58;23.50;;;;;;;-0.13;100.00;99624.53;5073053;28;20153;-71
2023/03/08 09:07:59;;;;;;;48.85;22.75;;;;;;;0.00;100.00;99619.34;5054658;28;20093;-72
2023/03/08 09:10:29;;;;;;;42.83;22.27;;;;;;;0.03;100.00;99618.28;5073152;28;20048;-71
2023/03/08 09:12:57;;;;;;;38.78;21.00;;;;;;;0.10;100.00;99614.34;5072980;28;20035;-70
2023/03/08 09:15:23;;;;;;;38.20;19.75;;;;;;;0.14;100.00;99618.44;5072429;28;20158;-71
2023/03/08 09:17:48;;;;;;;39.47;19.60;;;;;;;0.10;100.00;99599.47;5072391;28;20460;-74
2023/03/08 09:20:14;;;;;;;41.45;20.05;;;;;;;0.12;100.00;99596.75;5054137;28;20171;-72
2023/03/08 09:22:40;;;;;;;40.08;20.55;;;;;;;0.21;100.00;99603.16;5054541;28;20029;-73
2023/03/08 09:25:07;;;;;;;38.15;19.42;;;;;;;0.27;100.00;99592.25;5054513;28;20033;-71
2023/03/08 09:27:32;;;;;;;38.53;18.92;;;;;;;0.32;100.00;99587.56;5072315;28;20032;-72
2023/03/08 09:29:58;;;;;;;34.05;18.17;;;;;;;0.33;100.00;99579.63;5072732;28;20397;-70
2023/03/08 09:32:24;;;;;;;46.88;24.05;;;;;;;0.39;100.00;99581.00;5054891;28;20050;-71
2023/03/08 09:34:50;;;;;;;37.17;21.30;;;;;;;0.44;100.00;99578.06;5072744;28;20068;-71
2023/03/08 09:37:16;;;;;;;37.47;21.23;;;;;;;0.56;100.00;99584.22;5072071;28;20039;-70
2023/03/08 09:39:42;;;;;;;40.63;21.90;;;;;;;0.64;100.00;99585.38;5072707;28;20029;-70
2023/03/08 09:42:19;;;;;;;40.88;22.70;;;;;;;0.82;100.00;99587.63;5054631;28;20111;-71
2023/03/08 09:45:06;;;;;;;38.88;21.77;;;;;;;1.18;100.00;99593.84;5072146;28;20418;-72
2023/03/08 09:47:34;;;;;;;37.50;19.80;;;;;;;1.73;100.00;99583.75;5072788;28;20546;-72
2023/03/08 09:50:31;;;;;;;35.25;19.35;;;;;;;1.99;100.00;99573.97;5073055;28;20125;-73
2023/03/08 09:53:08;;;;;;;37.13;18.25;;;;;;;2.07;100.00;99574.22;5067314;28;20048;-71
2023/03/08 09:55:36;;;;;;;34.00;18.60;;;;;;;2.14;100.00;99577.22;5072545;28;20307;-72
2023/03/08 09:58:16;;;;;;;28.50;17.38;;;;;;;2.19;100.00;99582.13;5075832;28;20419;-73
2023/03/08 10:00:43;;;;;;;29.20;17.75;;;;;;;2.26;100.00;99580.72;5076025;28;20085;-72
2023/03/08 10:03:11;;;;;;;31.50;17.45;;;;;;;2.13;100.00;99575.53;5076248;28;20438;-72
2023/03/08 10:05:45;;;;;;;31.73;18.48;;;;;;;1.98;100.00;99558.34;5076030;28;20078;-71
2023/03/08 10:08:24;;;;;;;32.25;18.45;;;;;;;1.82;100.00;99563.88;5076356;28;20450;-73
2023/03/08 10:10:59;;;;;;;33.70;17.70;;;;;;;1.81;100.00;99563.06;5075610;28;20362;-72
2023/03/08 10:13:34;;;;;;;28.02;16.25;;;;;;;1.86;100.00;99544.34;5076347;28;20474;-73
2023/03/08 10:16:13;;;;;;;28.92;16.08;;;;;;;2.08;100.00;99543.59;5075967;28;20033;-69
2023/03/08 10:18:49;;;;;;;25.60;15.75;;;;;;;2.41;100.00;99527.03;5076336;28;20100;-71
2023/03/08 10:21:17;;;;;;;20.40;13.77;;;;;;;2.99;100.00;99528.66;5075868;28;20029;-70
2023/03/08 10:23:56;;;;;;;26.52;16.05;;;;;;;3.30;100.00;99511.25;5075880;28;20052;-72
2023/03/08 10:26:25;;;;;;;24.92;16.23;;;;;;;3.30;100.00;99519.16;5075702;28;20032;-74
2023/03/08 10:28:50;;;;;;;24.35;14.25;;;;;;;3.48;100.00;99519.44;5076282;28;20132;-73
2023/03/08 10:31:20;;;;;;;23.13;13.20;;;;;;;3.63;100.00;99527.88;5075438;28;20086;-71
2023/03/08 10:33:47;;;;;;;19.60;12.07;;;;;;;4.18;100.00;99543.47;5075774;28;20032;-73
2023/03/08 10:36:23;;;;;;;22.10;13.35;;;;;;;4.20;100.00;99536.28;5075978;28;20115;-72
2023/03/08 10:39:12;;;;;;;23.52;13.35;;;;;;;4.02;100.00;99530.75;5075485;28;20101;-74
2023/03/08 10:41:44;;;;;;;24.25;14.48;;;;;;;3.64;100.00;99537.44;5075656;28;20039;-73
2023/03/08 10:44:14;;;;;;;23.55;14.88;;;;;;;3.24;100.00;99529.31;5076148;28;20032;-74
2023/03/08 10:46:49;;;;;;;25.67;15.35;;;;;;;3.05;100.00;99525.53;5075407;28;20029;-74
2023/03/08 10:49:18;;;;;;;27.63;15.45;;;;;;;3.07;100.00;99531.50;5075482;28;20099;-73
2023/03/08 10:51:58;;;;;;;28.65;16.05;;;;;;;3.17;100.00;99542.13;5075335;28;20381;-74
2023/03/08 10:54:24;;;;;;;28.38;16.33;;;;;;;3.26;100.00;99545.81;5076004;28;20103;-74
2023/03/08 10:57:01;;;;;;;26.95;14.25;;;;;;;3.20;100.00;99536.63;5075154;28;20029;-74
2023/03/08 10:59:31;;;;;;;22.27;13.00;;;;;;;3.19;100.00;99527.06;5057315;28;20025;-74
2023/03/08 11:02:14;;;;;;;20.67;12.85;;;;;;;3.23;100.00;99519.78;5075402;28;20051;-74
2023/03/08 11:04:58;;;;;;;18.35;11.90;;;;;;;3.24;100.00;99514.38;5075001;28;20024;-74
2023/03/08 11:07:30;;;;;;;21.38;12.77;;;;;;;3.41;100.00;99513.00;5075038;28;20033;-73
2023/03/08 11:10:10;;;;;;;17.85;11.15;;;;;;;3.37;100.00;99513.38;5057096;28;20457;-73
2023/03/08 11:12:36;;;;;;;16.33;10.20;;;;;;;3.22;100.00;99518.91;5074439;28;20556;-73
2023/03/08 11:15:11;;;;;;;16.58;11.27;;;;;;;3.26;100.00;99519.53;5075222;28;20111;-73